sensor_id;sensor_type;location;lat;lon;timestamp;P1;durP1;ratioP1;P2;durP2;ratioP2
56114;SDS011;41988;53.020;6.576;2022-12-18T00:01:02;108.40;;;33.03;;
56114;SDS011;41988;53.020;6.576;2022-12-18T00:03:50;108.30;;;32.77;;
56114;SDS011;41988;53.020;6.576;2022-12-18T00:06:35;111.93;;;32.93;;
56114;SDS011;41988;53.020;6.576;2022-12-18T00:09:19;116.03;;;35.63;;
56114;SDS011;41988;53.020;6.576;2022-12-18T00:12:04;106.23;;;32.37;;
56114;SDS011;41988;53.020;6.576;2022-12-18T00:14:49;102.70;;;30.43;;
56114;SDS011;41988;53.020;6.576;2022-12-18T00:17:33;98.07;;;32.73;;
56114;SDS011;41988;53.020;6.576;2022-12-18T00:20:18;97.17;;;31.07;;
56114;SDS011;41988;53.020;6.576;2022-12-18T00:23:09;104.73;;;31.53;;
56114;SDS011;41988;53.020;6.576;2022-12-18T00:25:53;86.17;;;31.10;;
56114;SDS011;41988;53.020;6.576;2022-12-18T00:28:38;85.37;;;31.47;;
56114;SDS011;41988;53.020;6.576;2022-12-18T00:31:23;96.57;;;31.57;;
56114;SDS011;41988;53.020;6.576;2022-12-18T00:34:09;97.23;;;29.53;;
56114;SDS011;41988;53.020;6.576;2022-12-18T00:36:55;95.43;;;32.27;;
56114;SDS011;41988;53.020;6.576;2022-12-18T00:39:39;109.97;;;33.47;;
56114;SDS011;41988;53.020;6.576;2022-12-18T00:42:24;100.60;;;31.13;;
56114;SDS011;41988;53.020;6.576;2022-12-18T00:45:28;110.57;;;32.78;;
56114;SDS011;41988;53.020;6.576;2022-12-18T00:48:15;113.80;;;35.90;;
56114;SDS011;41988;53.020;6.576;2022-12-18T00:50:59;101.70;;;33.30;;
56114;SDS011;41988;53.020;6.576;2022-12-18T00:53:44;94.70;;;32.47;;
56114;SDS011;41988;53.020;6.576;2022-12-18T00:56:28;115.00;;;33.97;;
56114;SDS011;41988;53.020;6.576;2022-12-18T00:59:13;103.53;;;32.03;;
56114;SDS011;41988;53.020;6.576;2022-12-18T01:01:57;105.80;;;32.27;;
56114;SDS011;41988;53.020;6.576;2022-12-18T01:04:42;113.60;;;35.93;;
56114;SDS011;41988;53.020;6.576;2022-12-18T01:07:26;101.70;;;33.83;;
56114;SDS011;41988;53.020;6.576;2022-12-18T01:10:12;86.73;;;30.43;;
56114;SDS011;41988;53.020;6.576;2022-12-18T01:12:57;95.13;;;31.93;;
56114;SDS011;41988;53.020;6.576;2022-12-18T01:15:47;96.13;;;31.83;;
56114;SDS011;41988;53.020;6.576;2022-12-18T01:18:32;98.53;;;32.73;;
56114;SDS011;41988;53.020;6.576;2022-12-18T01:21:17;105.67;;;31.73;;
56114;SDS011;41988;53.020;6.576;2022-12-18T01:24:02;89.17;;;32.53;;
56114;SDS011;41988;53.020;6.576;2022-12-18T01:26:46;78.47;;;30.17;;
56114;SDS011;41988;53.020;6.576;2022-12-18T01:29:31;99.63;;;31.90;;
56114;SDS011;41988;53.020;6.576;2022-12-18T01:32:16;97.37;;;33.07;;
56114;SDS011;41988;53.020;6.576;2022-12-18T01:35:00;85.80;;;29.57;;
56114;SDS011;41988;53.020;6.576;2022-12-18T01:37:45;102.80;;;32.27;;
56114;SDS011;41988;53.020;6.576;2022-12-18T01:40:30;110.53;;;32.13;;
56114;SDS011;41988;53.020;6.576;2022-12-18T01:43:14;94.77;;;33.23;;
56114;SDS011;41988;53.020;6.576;2022-12-18T01:45:59;109.87;;;33.57;;
56114;SDS011;41988;53.020;6.576;2022-12-18T01:48:45;110.50;;;32.47;;
56114;SDS011;41988;53.020;6.576;2022-12-18T01:51:32;96.40;;;31.87;;
56114;SDS011;41988;53.020;6.576;2022-12-18T01:54:17;104.37;;;30.87;;
56114;SDS011;41988;53.020;6.576;2022-12-18T01:57:01;107.77;;;34.13;;
56114;SDS011;41988;53.020;6.576;2022-12-18T01:59:47;109.07;;;33.37;;
56114;SDS011;41988;53.020;6.576;2022-12-18T02:02:36;104.70;;;34.20;;
56114;SDS011;41988;53.020;6.576;2022-12-18T02:11:06;105.80;;;33.97;;
56114;SDS011;41988;53.020;6.576;2022-12-18T02:16:43;115.13;;;36.03;;
56114;SDS011;41988;53.020;6.576;2022-12-18T02:19:43;108.53;;;33.80;;
56114;SDS011;41988;53.020;6.576;2022-12-18T02:28:09;115.10;;;34.67;;
56114;SDS011;41988;53.020;6.576;2022-12-18T02:30:57;99.30;;;33.90;;
56114;SDS011;41988;53.020;6.576;2022-12-18T02:33:44;102.17;;;34.80;;
56114;SDS011;41988;53.020;6.576;2022-12-18T02:36:29;101.37;;;33.80;;
56114;SDS011;41988;53.020;6.576;2022-12-18T02:39:16;108.20;;;36.10;;
56114;SDS011;41988;53.020;6.576;2022-12-18T02:42:01;92.50;;;33.20;;
56114;SDS011;41988;53.020;6.576;2022-12-18T02:44:51;112.80;;;36.50;;
56114;SDS011;41988;53.020;6.576;2022-12-18T02:47:37;97.03;;;34.33;;
56114;SDS011;41988;53.020;6.576;2022-12-18T02:50:44;91.83;;;34.87;;
56114;SDS011;41988;53.020;6.576;2022-12-18T02:56:28;98.77;;;35.47;;
56114;SDS011;41988;53.020;6.576;2022-12-18T02:59:28;95.97;;;33.83;;
56114;SDS011;41988;53.020;6.576;2022-12-18T03:02:20;100.73;;;35.97;;
56114;SDS011;41988;53.020;6.576;2022-12-18T03:05:14;92.43;;;32.97;;
56114;SDS011;41988;53.020;6.576;2022-12-18T03:08:02;92.83;;;33.13;;
56114;SDS011;41988;53.020;6.576;2022-12-18T03:10:53;92.43;;;33.07;;
56114;SDS011;41988;53.020;6.576;2022-12-18T03:13:49;91.33;;;32.20;;
56114;SDS011;41988;53.020;6.576;2022-12-18T03:16:39;96.13;;;30.60;;
56114;SDS011;41988;53.020;6.576;2022-12-18T03:19:26;92.47;;;31.60;;
56114;SDS011;41988;53.020;6.576;2022-12-18T03:22:12;85.60;;;31.83;;
56114;SDS011;41988;53.020;6.576;2022-12-18T03:24:57;99.07;;;32.07;;
56114;SDS011;41988;53.020;6.576;2022-12-18T03:27:47;92.40;;;34.17;;
56114;SDS011;41988;53.020;6.576;2022-12-18T03:30:33;91.23;;;34.30;;
56114;SDS011;41988;53.020;6.576;2022-12-18T03:33:25;87.57;;;32.80;;
56114;SDS011;41988;53.020;6.576;2022-12-18T03:36:12;84.70;;;31.00;;
56114;SDS011;41988;53.020;6.576;2022-12-18T03:38:58;99.57;;;35.40;;
56114;SDS011;41988;53.020;6.576;2022-12-18T03:44:31;87.53;;;31.33;;
56114;SDS011;41988;53.020;6.576;2022-12-18T03:47:27;86.50;;;31.23;;
56114;SDS011;41988;53.020;6.576;2022-12-18T03:50:14;80.77;;;28.10;;
56114;SDS011;41988;53.020;6.576;2022-12-18T03:53:20;88.17;;;32.23;;
56114;SDS011;41988;53.020;6.576;2022-12-18T03:56:08;92.87;;;31.90;;
56114;SDS011;41988;53.020;6.576;2022-12-18T03:58:54;83.70;;;33.00;;
56114;SDS011;41988;53.020;6.576;2022-12-18T04:01:41;78.93;;;29.53;;
56114;SDS011;41988;53.020;6.576;2022-12-18T04:04:29;80.37;;;28.47;;
56114;SDS011;41988;53.020;6.576;2022-12-18T04:07:16;80.13;;;29.00;;
56114;SDS011;41988;53.020;6.576;2022-12-18T04:10:01;84.83;;;29.47;;
56114;SDS011;41988;53.020;6.576;2022-12-18T04:12:47;81.27;;;27.90;;
56114;SDS011;41988;53.020;6.576;2022-12-18T04:15:33;77.73;;;30.17;;
56114;SDS011;41988;53.020;6.576;2022-12-18T04:18:19;84.67;;;28.57;;
56114;SDS011;41988;53.020;6.576;2022-12-18T04:21:03;76.63;;;31.20;;
56114;SDS011;41988;53.020;6.576;2022-12-18T04:23:48;72.50;;;28.17;;
56114;SDS011;41988;53.020;6.576;2022-12-18T04:26:33;83.37;;;27.87;;
56114;SDS011;41988;53.020;6.576;2022-12-18T04:29:17;78.87;;;28.40;;
56114;SDS011;41988;53.020;6.576;2022-12-18T04:32:02;82.60;;;32.07;;
56114;SDS011;41988;53.020;6.576;2022-12-18T04:34:46;83.00;;;29.93;;
56114;SDS011;41988;53.020;6.576;2022-12-18T04:37:31;78.67;;;27.30;;
56114;SDS011;41988;53.020;6.576;2022-12-18T04:40:15;78.50;;;27.63;;
56114;SDS011;41988;53.020;6.576;2022-12-18T04:43:00;67.57;;;26.80;;
56114;SDS011;41988;53.020;6.576;2022-12-18T04:45:44;76.27;;;27.80;;
56114;SDS011;41988;53.020;6.576;2022-12-18T04:48:29;72.63;;;28.33;;
56114;SDS011;41988;53.020;6.576;2022-12-18T04:51:13;71.27;;;27.17;;
56114;SDS011;41988;53.020;6.576;2022-12-18T04:53:58;76.37;;;29.27;;
56114;SDS011;41988;53.020;6.576;2022-12-18T04:56:42;77.00;;;27.37;;
56114;SDS011;41988;53.020;6.576;2022-12-18T04:59:27;72.83;;;26.37;;
56114;SDS011;41988;53.020;6.576;2022-12-18T05:02:11;64.20;;;26.60;;
56114;SDS011;41988;53.020;6.576;2022-12-18T05:04:56;76.33;;;26.90;;
56114;SDS011;41988;53.020;6.576;2022-12-18T05:07:40;71.17;;;25.37;;
56114;SDS011;41988;53.020;6.576;2022-12-18T05:10:25;74.90;;;25.33;;
56114;SDS011;41988;53.020;6.576;2022-12-18T05:13:09;63.77;;;25.10;;
56114;SDS011;41988;53.020;6.576;2022-12-18T05:15:54;65.90;;;24.00;;
56114;SDS011;41988;53.020;6.576;2022-12-18T05:18:39;61.90;;;23.50;;
56114;SDS011;41988;53.020;6.576;2022-12-18T05:21:24;54.90;;;23.60;;
56114;SDS011;41988;53.020;6.576;2022-12-18T05:24:08;51.00;;;21.60;;
56114;SDS011;41988;53.020;6.576;2022-12-18T05:26:53;60.43;;;25.80;;
56114;SDS011;41988;53.020;6.576;2022-12-18T05:29:37;56.83;;;21.70;;
56114;SDS011;41988;53.020;6.576;2022-12-18T05:32:22;60.43;;;22.17;;
56114;SDS011;41988;53.020;6.576;2022-12-18T05:35:07;60.07;;;22.93;;
56114;SDS011;41988;53.020;6.576;2022-12-18T05:37:52;52.27;;;21.33;;
56114;SDS011;41988;53.020;6.576;2022-12-18T05:40:37;55.10;;;23.50;;
56114;SDS011;41988;53.020;6.576;2022-12-18T05:43:22;56.87;;;20.10;;
56114;SDS011;41988;53.020;6.576;2022-12-18T05:46:16;47.50;;;20.33;;
56114;SDS011;41988;53.020;6.576;2022-12-18T05:49:01;48.00;;;19.90;;
56114;SDS011;41988;53.020;6.576;2022-12-18T05:51:46;47.47;;;19.30;;
56114;SDS011;41988;53.020;6.576;2022-12-18T05:54:31;48.53;;;21.43;;
56114;SDS011;41988;53.020;6.576;2022-12-18T05:57:15;49.40;;;20.60;;
56114;SDS011;41988;53.020;6.576;2022-12-18T05:59:59;48.73;;;20.47;;
56114;SDS011;41988;53.020;6.576;2022-12-18T06:02:47;51.03;;;20.53;;
56114;SDS011;41988;53.020;6.576;2022-12-18T06:05:36;48.53;;;20.07;;
56114;SDS011;41988;53.020;6.576;2022-12-18T06:08:21;52.47;;;21.50;;
56114;SDS011;41988;53.020;6.576;2022-12-18T06:11:06;47.30;;;20.50;;
56114;SDS011;41988;53.020;6.576;2022-12-18T06:13:51;51.00;;;20.23;;
56114;SDS011;41988;53.020;6.576;2022-12-18T06:16:37;51.80;;;20.17;;
56114;SDS011;41988;53.020;6.576;2022-12-18T06:19:21;48.13;;;19.93;;
56114;SDS011;41988;53.020;6.576;2022-12-18T06:22:05;42.13;;;19.90;;
56114;SDS011;41988;53.020;6.576;2022-12-18T06:24:50;45.60;;;20.80;;
56114;SDS011;41988;53.020;6.576;2022-12-18T06:27:35;43.83;;;19.80;;
56114;SDS011;41988;53.020;6.576;2022-12-18T06:30:19;49.73;;;23.03;;
56114;SDS011;41988;53.020;6.576;2022-12-18T06:33:04;42.80;;;18.90;;
56114;SDS011;41988;53.020;6.576;2022-12-18T06:35:50;45.07;;;19.43;;
56114;SDS011;41988;53.020;6.576;2022-12-18T06:38:35;52.87;;;21.37;;
56114;SDS011;41988;53.020;6.576;2022-12-18T06:41:20;50.13;;;18.83;;
56114;SDS011;41988;53.020;6.576;2022-12-18T06:44:05;39.97;;;18.87;;
56114;SDS011;41988;53.020;6.576;2022-12-18T06:46:50;46.17;;;19.43;;
56114;SDS011;41988;53.020;6.576;2022-12-18T06:49:34;43.87;;;19.47;;
56114;SDS011;41988;53.020;6.576;2022-12-18T06:52:19;44.33;;;19.93;;
56114;SDS011;41988;53.020;6.576;2022-12-18T06:55:04;42.87;;;18.13;;
56114;SDS011;41988;53.020;6.576;2022-12-18T06:57:49;50.50;;;17.93;;
56114;SDS011;41988;53.020;6.576;2022-12-18T07:00:33;50.17;;;21.07;;
56114;SDS011;41988;53.020;6.576;2022-12-18T07:03:18;43.53;;;18.93;;
56114;SDS011;41988;53.020;6.576;2022-12-18T07:06:02;50.00;;;19.67;;
56114;SDS011;41988;53.020;6.576;2022-12-18T07:08:48;45.23;;;18.83;;
56114;SDS011;41988;53.020;6.576;2022-12-18T07:11:33;47.93;;;20.13;;
56114;SDS011;41988;53.020;6.576;2022-12-18T07:14:18;44.53;;;18.70;;
56114;SDS011;41988;53.020;6.576;2022-12-18T07:17:03;44.13;;;19.50;;
56114;SDS011;41988;53.020;6.576;2022-12-18T07:19:47;41.17;;;18.27;;
56114;SDS011;41988;53.020;6.576;2022-12-18T07:22:32;41.50;;;18.03;;
56114;SDS011;41988;53.020;6.576;2022-12-18T07:25:16;44.83;;;17.47;;
56114;SDS011;41988;53.020;6.576;2022-12-18T07:28:01;48.57;;;18.37;;
56114;SDS011;41988;53.020;6.576;2022-12-18T07:30:46;45.50;;;19.20;;
56114;SDS011;41988;53.020;6.576;2022-12-18T07:33:30;39.37;;;18.57;;
56114;SDS011;41988;53.020;6.576;2022-12-18T07:36:15;35.57;;;17.27;;
56114;SDS011;41988;53.020;6.576;2022-12-18T07:39:00;43.43;;;17.77;;
56114;SDS011;41988;53.020;6.576;2022-12-18T07:41:45;39.70;;;18.70;;
56114;SDS011;41988;53.020;6.576;2022-12-18T07:44:49;39.03;;;17.73;;
56114;SDS011;41988;53.020;6.576;2022-12-18T07:47:35;40.47;;;17.90;;
56114;SDS011;41988;53.020;6.576;2022-12-18T07:50:22;36.40;;;15.50;;
56114;SDS011;41988;53.020;6.576;2022-12-18T07:53:07;37.00;;;17.43;;
56114;SDS011;41988;53.020;6.576;2022-12-18T07:55:59;37.43;;;17.50;;
56114;SDS011;41988;53.020;6.576;2022-12-18T07:58:44;37.73;;;17.00;;
56114;SDS011;41988;53.020;6.576;2022-12-18T08:01:29;34.33;;;15.60;;
56114;SDS011;41988;53.020;6.576;2022-12-18T08:04:13;37.40;;;16.47;;
56114;SDS011;41988;53.020;6.576;2022-12-18T08:06:58;31.93;;;16.70;;
56114;SDS011;41988;53.020;6.576;2022-12-18T08:09:42;39.07;;;16.40;;
56114;SDS011;41988;53.020;6.576;2022-12-18T08:12:27;37.27;;;17.57;;
56114;SDS011;41988;53.020;6.576;2022-12-18T08:15:12;36.20;;;16.70;;
56114;SDS011;41988;53.020;6.576;2022-12-18T08:17:56;36.23;;;16.17;;
56114;SDS011;41988;53.020;6.576;2022-12-18T08:20:41;32.07;;;15.93;;
56114;SDS011;41988;53.020;6.576;2022-12-18T08:23:26;39.90;;;17.60;;
56114;SDS011;41988;53.020;6.576;2022-12-18T08:26:11;35.60;;;16.13;;
56114;SDS011;41988;53.020;6.576;2022-12-18T08:32:14;29.87;;;15.53;;
56114;SDS011;41988;53.020;6.576;2022-12-18T08:35:04;35.00;;;16.47;;
56114;SDS011;41988;53.020;6.576;2022-12-18T08:37:51;45.33;;;18.83;;
56114;SDS011;41988;53.020;6.576;2022-12-18T08:40:39;32.57;;;15.53;;
56114;SDS011;41988;53.020;6.576;2022-12-18T08:43:24;34.27;;;15.73;;
56114;SDS011;41988;53.020;6.576;2022-12-18T08:46:31;31.73;;;16.17;;
56114;SDS011;41988;53.020;6.576;2022-12-18T08:49:19;34.57;;;17.70;;
56114;SDS011;41988;53.020;6.576;2022-12-18T08:52:04;45.93;;;22.70;;
56114;SDS011;41988;53.020;6.576;2022-12-18T08:54:59;43.43;;;22.43;;
56114;SDS011;41988;53.020;6.576;2022-12-18T08:57:47;39.67;;;18.80;;
56114;SDS011;41988;53.020;6.576;2022-12-18T09:00:32;32.57;;;16.80;;
56114;SDS011;41988;53.020;6.576;2022-12-18T09:03:24;30.30;;;14.97;;
56114;SDS011;41988;53.020;6.576;2022-12-18T09:06:19;26.23;;;14.00;;
56114;SDS011;41988;53.020;6.576;2022-12-18T09:09:04;31.90;;;15.43;;
56114;SDS011;41988;53.020;6.576;2022-12-18T09:11:49;28.27;;;14.67;;
56114;SDS011;41988;53.020;6.576;2022-12-18T09:14:33;26.60;;;14.53;;
56114;SDS011;41988;53.020;6.576;2022-12-18T09:17:18;23.67;;;14.20;;
56114;SDS011;41988;53.020;6.576;2022-12-18T09:20:02;32.53;;;15.80;;
56114;SDS011;41988;53.020;6.576;2022-12-18T09:22:47;25.80;;;14.30;;
56114;SDS011;41988;53.020;6.576;2022-12-18T09:25:32;27.17;;;13.53;;
56114;SDS011;41988;53.020;6.576;2022-12-18T09:28:17;28.63;;;14.20;;
56114;SDS011;41988;53.020;6.576;2022-12-18T09:31:06;22.23;;;12.60;;
56114;SDS011;41988;53.020;6.576;2022-12-18T09:33:51;25.47;;;12.77;;
56114;SDS011;41988;53.020;6.576;2022-12-18T09:36:35;27.13;;;14.13;;
56114;SDS011;41988;53.020;6.576;2022-12-18T09:39:20;23.57;;;12.73;;
56114;SDS011;41988;53.020;6.576;2022-12-18T09:42:04;21.27;;;12.27;;
56114;SDS011;41988;53.020;6.576;2022-12-18T09:44:50;24.27;;;11.60;;
56114;SDS011;41988;53.020;6.576;2022-12-18T09:47:37;25.40;;;12.90;;
56114;SDS011;41988;53.020;6.576;2022-12-18T09:50:33;19.83;;;11.57;;
56114;SDS011;41988;53.020;6.576;2022-12-18T09:53:22;21.90;;;11.67;;
56114;SDS011;41988;53.020;6.576;2022-12-18T09:56:18;23.33;;;12.40;;
56114;SDS011;41988;53.020;6.576;2022-12-18T09:59:09;20.80;;;11.80;;
56114;SDS011;41988;53.020;6.576;2022-12-18T10:02:16;21.23;;;12.40;;
56114;SDS011;41988;53.020;6.576;2022-12-18T10:05:06;18.83;;;11.30;;
56114;SDS011;41988;53.020;6.576;2022-12-18T10:08:04;17.23;;;9.70;;
56114;SDS011;41988;53.020;6.576;2022-12-18T10:10:53;19.87;;;11.27;;
56114;SDS011;41988;53.020;6.576;2022-12-18T10:13:46;18.73;;;9.40;;
56114;SDS011;41988;53.020;6.576;2022-12-18T10:19:31;17.50;;;8.37;;
56114;SDS011;41988;53.020;6.576;2022-12-18T10:25:34;14.47;;;7.83;;
56114;SDS011;41988;53.020;6.576;2022-12-18T10:28:40;17.00;;;9.00;;
56114;SDS011;41988;53.020;6.576;2022-12-18T10:31:25;14.53;;;8.53;;
56114;SDS011;41988;53.020;6.576;2022-12-18T10:34:10;16.60;;;7.90;;
56114;SDS011;41988;53.020;6.576;2022-12-18T10:36:55;12.77;;;6.87;;
56114;SDS011;41988;53.020;6.576;2022-12-18T10:39:40;14.37;;;7.83;;
56114;SDS011;41988;53.020;6.576;2022-12-18T10:42:25;14.90;;;7.00;;
56114;SDS011;41988;53.020;6.576;2022-12-18T10:45:14;13.03;;;6.40;;
56114;SDS011;41988;53.020;6.576;2022-12-18T10:47:59;11.47;;;6.63;;
56114;SDS011;41988;53.020;6.576;2022-12-18T10:50:46;14.23;;;6.43;;
56114;SDS011;41988;53.020;6.576;2022-12-18T10:53:33;13.63;;;6.23;;
56114;SDS011;41988;53.020;6.576;2022-12-18T10:56:20;8.20;;;5.23;;
56114;SDS011;41988;53.020;6.576;2022-12-18T10:59:06;12.03;;;6.23;;
56114;SDS011;41988;53.020;6.576;2022-12-18T11:01:56;9.37;;;5.57;;
56114;SDS011;41988;53.020;6.576;2022-12-18T11:04:49;13.30;;;5.37;;
56114;SDS011;41988;53.020;6.576;2022-12-18T11:08:11;9.05;;;5.28;;
56114;SDS011;41988;53.020;6.576;2022-12-18T11:10:46;9.67;;;7.00;;
56114;SDS011;41988;53.020;6.576;2022-12-18T11:13:31;12.57;;;6.47;;
56114;SDS011;41988;53.020;6.576;2022-12-18T11:16:19;13.53;;;7.57;;
56114;SDS011;41988;53.020;6.576;2022-12-18T11:19:21;12.47;;;6.80;;
56114;SDS011;41988;53.020;6.576;2022-12-18T11:22:25;8.82;;;5.28;;
56114;SDS011;41988;53.020;6.576;2022-12-18T11:27:57;16.90;;;8.07;;
56114;SDS011;41988;53.020;6.576;2022-12-18T11:30:44;14.33;;;8.47;;
56114;SDS011;41988;53.020;6.576;2022-12-18T11:33:28;12.27;;;7.40;;
56114;SDS011;41988;53.020;6.576;2022-12-18T11:36:13;12.03;;;7.63;;
56114;SDS011;41988;53.020;6.576;2022-12-18T11:38:59;17.80;;;9.00;;
56114;SDS011;41988;53.020;6.576;2022-12-18T11:48:23;11.90;;;7.27;;
56114;SDS011;41988;53.020;6.576;2022-12-18T11:51:29;11.97;;;6.93;;
56114;SDS011;41988;53.020;6.576;2022-12-18T11:54:19;12.00;;;7.97;;
56114;SDS011;41988;53.020;6.576;2022-12-18T11:57:14;12.13;;;7.20;;
56114;SDS011;41988;53.020;6.576;2022-12-18T12:00:20;14.93;;;7.93;;
56114;SDS011;41988;53.020;6.576;2022-12-18T12:06:03;16.57;;;7.17;;
56114;SDS011;41988;53.020;6.576;2022-12-18T12:14:36;10.43;;;6.73;;
56114;SDS011;41988;53.020;6.576;2022-12-18T12:17:51;11.53;;;7.47;;
56114;SDS011;41988;53.020;6.576;2022-12-18T12:20:42;12.73;;;6.80;;
56114;SDS011;41988;53.020;6.576;2022-12-18T12:24:49;13.00;;;6.90;;
56114;SDS011;41988;53.020;6.576;2022-12-18T12:39:47;16.30;;;7.00;;
56114;SDS011;41988;53.020;6.576;2022-12-18T12:42:38;12.57;;;6.63;;
56114;SDS011;41988;53.020;6.576;2022-12-18T12:45:53;12.33;;;7.03;;
56114;SDS011;41988;53.020;6.576;2022-12-18T12:48:48;13.03;;;7.23;;
56114;SDS011;41988;53.020;6.576;2022-12-18T12:51:43;11.70;;;6.80;;
56114;SDS011;41988;53.020;6.576;2022-12-18T12:54:31;13.27;;;7.73;;
56114;SDS011;41988;53.020;6.576;2022-12-18T12:57:26;10.33;;;6.37;;
56114;SDS011;41988;53.020;6.576;2022-12-18T13:00:56;13.47;;;6.20;;
56114;SDS011;41988;53.020;6.576;2022-12-18T13:07:17;9.27;;;5.40;;
56114;SDS011;41988;53.020;6.576;2022-12-18T13:13:07;10.83;;;6.90;;
56114;SDS011;41988;53.020;6.576;2022-12-18T13:16:03;9.33;;;6.00;;
56114;SDS011;41988;53.020;6.576;2022-12-18T13:18:52;9.07;;;5.60;;
56114;SDS011;41988;53.020;6.576;2022-12-18T13:21:40;9.73;;;5.67;;
56114;SDS011;41988;53.020;6.576;2022-12-18T13:24:25;11.50;;;6.60;;
56114;SDS011;41988;53.020;6.576;2022-12-18T13:36:16;10.10;;;5.87;;
56114;SDS011;41988;53.020;6.576;2022-12-18T13:44:51;12.53;;;6.43;;
56114;SDS011;41988;53.020;6.576;2022-12-18T13:47:36;13.50;;;5.43;;
56114;SDS011;41988;53.020;6.576;2022-12-18T13:50:22;9.97;;;6.10;;
56114;SDS011;41988;53.020;6.576;2022-12-18T13:53:15;9.83;;;5.63;;
56114;SDS011;41988;53.020;6.576;2022-12-18T13:56:04;10.37;;;5.87;;
56114;SDS011;41988;53.020;6.576;2022-12-18T14:01:59;10.53;;;5.53;;
56114;SDS011;41988;53.020;6.576;2022-12-18T14:04:49;10.47;;;6.40;;
56114;SDS011;41988;53.020;6.576;2022-12-18T14:07:34;8.53;;;5.30;;
56114;SDS011;41988;53.020;6.576;2022-12-18T14:10:19;11.07;;;6.20;;
56114;SDS011;41988;53.020;6.576;2022-12-18T14:13:05;12.83;;;5.60;;
56114;SDS011;41988;53.020;6.576;2022-12-18T14:15:52;10.87;;;5.67;;
56114;SDS011;41988;53.020;6.576;2022-12-18T14:18:44;13.13;;;5.87;;
56114;SDS011;41988;53.020;6.576;2022-12-18T14:21:32;13.30;;;6.80;;
56114;SDS011;41988;53.020;6.576;2022-12-18T14:24:19;11.63;;;5.87;;
56114;SDS011;41988;53.020;6.576;2022-12-18T14:27:41;11.30;;;5.67;;
56114;SDS011;41988;53.020;6.576;2022-12-18T14:30:24;10.27;;;5.70;;
56114;SDS011;41988;53.020;6.576;2022-12-18T14:33:28;9.20;;;5.83;;
56114;SDS011;41988;53.020;6.576;2022-12-18T14:36:17;10.57;;;6.33;;
56114;SDS011;41988;53.020;6.576;2022-12-18T14:39:03;14.80;;;7.17;;
56114;SDS011;41988;53.020;6.576;2022-12-18T14:41:48;11.90;;;6.57;;
56114;SDS011;41988;53.020;6.576;2022-12-18T14:44:33;10.67;;;5.23;;
56114;SDS011;41988;53.020;6.576;2022-12-18T14:47:17;12.77;;;5.90;;
56114;SDS011;41988;53.020;6.576;2022-12-18T14:50:02;10.93;;;6.13;;
56114;SDS011;41988;53.020;6.576;2022-12-18T14:52:47;20.80;;;7.40;;
56114;SDS011;41988;53.020;6.576;2022-12-18T14:55:32;13.43;;;6.30;;
56114;SDS011;41988;53.020;6.576;2022-12-18T14:58:17;10.97;;;6.37;;
56114;SDS011;41988;53.020;6.576;2022-12-18T15:01:02;10.83;;;5.90;;
56114;SDS011;41988;53.020;6.576;2022-12-18T15:03:46;13.00;;;6.20;;
56114;SDS011;41988;53.020;6.576;2022-12-18T15:06:35;12.10;;;6.77;;
56114;SDS011;41988;53.020;6.576;2022-12-18T15:09:22;13.17;;;7.27;;
56114;SDS011;41988;53.020;6.576;2022-12-18T15:13:09;12.37;;;7.33;;
56114;SDS011;41988;53.020;6.576;2022-12-18T15:18:30;11.67;;;7.33;;
56114;SDS011;41988;53.020;6.576;2022-12-18T15:21:18;13.27;;;7.73;;
56114;SDS011;41988;53.020;6.576;2022-12-18T15:24:03;14.33;;;6.87;;
56114;SDS011;41988;53.020;6.576;2022-12-18T15:26:48;12.00;;;7.13;;
56114;SDS011;41988;53.020;6.576;2022-12-18T15:29:33;13.23;;;6.83;;
56114;SDS011;41988;53.020;6.576;2022-12-18T15:32:18;14.60;;;8.20;;
56114;SDS011;41988;53.020;6.576;2022-12-18T15:35:08;14.27;;;7.50;;
56114;SDS011;41988;53.020;6.576;2022-12-18T15:38:02;11.40;;;7.50;;
56114;SDS011;41988;53.020;6.576;2022-12-18T15:40:47;14.57;;;7.60;;
56114;SDS011;41988;53.020;6.576;2022-12-18T15:43:31;12.87;;;6.67;;
56114;SDS011;41988;53.020;6.576;2022-12-18T15:46:21;12.40;;;7.53;;
56114;SDS011;41988;53.020;6.576;2022-12-18T15:49:07;15.13;;;7.07;;
56114;SDS011;41988;53.020;6.576;2022-12-18T15:51:52;12.33;;;6.80;;
56114;SDS011;41988;53.020;6.576;2022-12-18T15:54:40;14.70;;;7.13;;
56114;SDS011;41988;53.020;6.576;2022-12-18T15:57:43;16.37;;;7.60;;
56114;SDS011;41988;53.020;6.576;2022-12-18T16:00:28;14.30;;;8.57;;
56114;SDS011;41988;53.020;6.576;2022-12-18T16:03:12;20.17;;;9.60;;
56114;SDS011;41988;53.020;6.576;2022-12-18T16:05:57;21.20;;;10.37;;
56114;SDS011;41988;53.020;6.576;2022-12-18T16:08:43;12.00;;;7.00;;
56114;SDS011;41988;53.020;6.576;2022-12-18T16:11:28;17.13;;;8.73;;
56114;SDS011;41988;53.020;6.576;2022-12-18T16:14:27;13.87;;;8.67;;
56114;SDS011;41988;53.020;6.576;2022-12-18T16:17:13;14.23;;;8.00;;
56114;SDS011;41988;53.020;6.576;2022-12-18T16:19:58;12.87;;;7.60;;
56114;SDS011;41988;53.020;6.576;2022-12-18T16:22:43;14.70;;;8.50;;
56114;SDS011;41988;53.020;6.576;2022-12-18T16:25:30;16.00;;;8.13;;
56114;SDS011;41988;53.020;6.576;2022-12-18T16:28:14;13.83;;;7.87;;
56114;SDS011;41988;53.020;6.576;2022-12-18T16:30:59;15.77;;;8.27;;
56114;SDS011;41988;53.020;6.576;2022-12-18T16:33:43;12.20;;;7.57;;
56114;SDS011;41988;53.020;6.576;2022-12-18T16:36:28;14.30;;;7.93;;
56114;SDS011;41988;53.020;6.576;2022-12-18T16:39:12;12.40;;;7.37;;
56114;SDS011;41988;53.020;6.576;2022-12-18T16:42:18;12.43;;;7.00;;
56114;SDS011;41988;53.020;6.576;2022-12-18T16:45:03;15.60;;;7.40;;
56114;SDS011;41988;53.020;6.576;2022-12-18T16:47:48;12.90;;;8.23;;
56114;SDS011;41988;53.020;6.576;2022-12-18T16:50:33;14.27;;;8.13;;
56114;SDS011;41988;53.020;6.576;2022-12-18T16:53:17;12.27;;;7.40;;
56114;SDS011;41988;53.020;6.576;2022-12-18T16:56:02;15.03;;;7.83;;
56114;SDS011;41988;53.020;6.576;2022-12-18T16:58:53;13.93;;;7.87;;
56114;SDS011;41988;53.020;6.576;2022-12-18T17:01:38;11.87;;;7.37;;
56114;SDS011;41988;53.020;6.576;2022-12-18T17:04:24;14.20;;;8.87;;
56114;SDS011;41988;53.020;6.576;2022-12-18T17:07:08;14.17;;;7.33;;
56114;SDS011;41988;53.020;6.576;2022-12-18T17:09:53;13.20;;;7.47;;
56114;SDS011;41988;53.020;6.576;2022-12-18T17:12:38;13.90;;;8.23;;
56114;SDS011;41988;53.020;6.576;2022-12-18T17:15:23;13.67;;;8.10;;
56114;SDS011;41988;53.020;6.576;2022-12-18T17:18:08;16.87;;;8.30;;
56114;SDS011;41988;53.020;6.576;2022-12-18T17:20:57;12.80;;;7.93;;
56114;SDS011;41988;53.020;6.576;2022-12-18T17:23:44;14.20;;;7.60;;
56114;SDS011;41988;53.020;6.576;2022-12-18T17:26:29;11.67;;;7.30;;
56114;SDS011;41988;53.020;6.576;2022-12-18T17:29:15;12.97;;;8.00;;
56114;SDS011;41988;53.020;6.576;2022-12-18T17:32:00;25.63;;;11.07;;
56114;SDS011;41988;53.020;6.576;2022-12-18T17:34:44;15.23;;;9.70;;
56114;SDS011;41988;53.020;6.576;2022-12-18T17:37:29;13.93;;;8.47;;
56114;SDS011;41988;53.020;6.576;2022-12-18T17:40:13;12.70;;;7.60;;
56114;SDS011;41988;53.020;6.576;2022-12-18T17:42:58;17.07;;;8.47;;
56114;SDS011;41988;53.020;6.576;2022-12-18T17:45:42;11.03;;;7.30;;
56114;SDS011;41988;53.020;6.576;2022-12-18T17:48:27;13.67;;;7.47;;
56114;SDS011;41988;53.020;6.576;2022-12-18T17:51:13;12.73;;;7.20;;
56114;SDS011;41988;53.020;6.576;2022-12-18T17:53:58;12.57;;;6.90;;